map of TSA home
TSA - Airport
Location
City:  Taipei, Taiwan
Name:Taipei Songshan
Old (Alt.):Sung Shan
ICAO:RCSS
IATA:TSA

Details
Type:Airport (Aerodrome, Airfield)
Use:Public/Civil
Latitude:2504'11"N (25.069722)
Longitude:12133'09"E (121.552500)
Datum:WGS 1984
Elevation:18 ft (5 m)
Variation:4.58W (WMM2015 magnetic declination)
-0.09 annual change
Runways:1
Longest:8578 × 197 ft (2615 × 60 m), paved

Time
Time Zone:UTC+8
Local Time:

Weather
METAR:RCSS 220330Z 04004KT 350V090 9999 FEW012 BKN025 BKN040 15/10 Q1023 NOSIG RMK A3023
TAF:RCSS 212300Z 2200/2224 08005KT 9999 FEW012 BKN022
TEMPO 2203/2209 10010KT FEW015 BKN032
BECMG 2209/2211 FEW016 BKN032
BECMG 2212/2214 09012KT

Related Locations
Nearby:
Farthest:CLX: 12395 mi / 19948 km
Clorinda [Clorinda Airport], P, AR

Find:

   beyond  
but within

Other Information
Maps:
NOTAMs:
Links:
Sources:

  
  • flag of Taiwan
  • flag of Taipei
  

Sectional Chart

Flight Planning
at skyvector.com

Satellite Image

Google Maps Satellite view

 

Copyright © 2004-2019 Karl L. Swartz. All rights reserved.
The Great Circle Mapper name and logo are trademarks of the Great Circle Mapper.
All other trademarks mentioned herein belong to their respective owners.
Please see credits for attibutions and further copyright information.

  Follow gcmap on Facebook Follow gcmap on Twitter Follow gcmap on Google+ GCmap on LinkedIn

hCard Microformat

Geo Microformat